Shipshewana, IN

8:25 AM EST on February 08, 2016 (GMT -0500)
Kirsch Municipal | | Change Station
CLOSE
Current Station
Airport
Location: Sturgis,
Elevation: 925 ft
Nearby Weather Stations

Elev 925 ft 41.82 °N, 85.44 °W | Updated 10 minutes ago

Partly Cloudy
Partly Cloudy
27 °F
Feels Like 23 °F
N
4
Wind Variable Wind from South

Today
High -- | Low -- °F
--% Chance of Precip.
Yesterday
High -- | Low -- °F
Precip. -- in
Pressure 29.62 in
Visibility 10.0 miles
Clouds Overcast 8500 ft
Windchill 23 °F
Dew Point 25 °F
Humidity 94%
Rainfall 0.00 in
Snow Depth Not available.
7:47 AM 6:06 PM
Waning Crescent, 0% visible
METAR KIRS 081315Z AUTO 19003KT 10SM OVC085 M03/M04 A2962 RMK AO2 T10301038
Pressure 29.62 in
Visibility 10.0 miles
Clouds Overcast 8500 ft
Windchill 23 °F
Dew Point 25 °F
Humidity 94%
Rainfall 0.00 in
Snow Depth Not available.
7:47 AM 6:06 PM
Waning Crescent, 0% visible
METAR KIRS 081315Z AUTO 19003KT 10SM OVC085 M03/M04 A2962 RMK AO2 T10301038

10-Day Weather Forecast

Almanac

Astronomy

Feb. 08, 2016 Rise Set
Actual Time
Civil Twilight
Nautical Twilight
Astronomical Twilight
Moon
Length of Visible Light
Length of Day
Tomorrow will be .
, % of the Moon is Illuminated

Today's Extremes

State Highs State Lows

Community

WunderPhotos

Upload Photos

1,891,434 photos uploaded!

WunderBlog® & News

Nearby

Air Quality

  Air Quality AQ Index Pollutant
Not available.

Snow Depth

Station Depth Elevation

Earthquake Activity

City Distance Mag. Time & Date
Minimum magnitude displayed is 2.5.

Coastal Water Temperatures

Place Temperature

Stations

Nearby Weather Stations

Station Location Temp. Windchill Dew Point Humidity Wind Precip. Elev Updated Type
                   

Watches & Warnings

There are currently no watches in effect.